Sretensk, Russia
Current Conditions -  °F | °C
As of 2:00 AM on Tuesday 23 Dec 2014 (Local Time) from UIAA Reporting Station
Clear Clear  
Wind Chill:   Ceiling: Unl
Heat Index: 16°   Visibility: 6mi
Dew Point:   Wind: 11mph
Humidity: 68%   Direction: 290°WNW
Pressure: 29.94"   Gusts: NA
Location:  52.23°N, 117.7°E
Report Text: UIAA 221700Z 29005MPS 9999 SKC M09/M14 Q1014 NOSIG RMK QFE70229CLRD70
Loading
Personal Weather Stations






























Interactive Weather Map New forecast layout! Learn more

10-Day Weather Forecast

Advertisements
Track Severe Weather on mobile